Clark, Texas
Current Conditions -  °F | °C
As of 10:15 AM on Thursday 30 Oct 2014 (Local Time) from K6R3 Reporting Station
Haze Haze  
Wind Chill: 64°   Ceiling: Unl
Heat Index: 64°   Visibility: 5mi
Dew Point: 53°   Wind: 5mph
Humidity: 68%   Direction: 80°E
Pressure: 30.18"   Gusts: NA
Location:  30.2945°N, 94.9711°W
Report Text: K6R3 301515Z AUTO 08004KT 5SM HZ CLR 18/12 A3018 RMK AO2 T01750115
Loading
Personal Weather Stations






























Interactive Weather Map New forecast layout! Learn more

10-Day Weather Forecast

Advertisements
Track Severe Weather on mobile